Time;durP1;ratioP1;P1;durP2;ratioP2;P2;SDS_P1;SDS_P2;PMS_P1;PMS_P2;Temp;Humidity;BMP_temperature;BMP_pressure;BME280_temperature;BME280_humidity;BME280_pressure;Samples;Min_cycle;Max_cycle;Signal;HPM_P1;HPM_P2
2022/04/05 00:02:20;;;;;;;;;;;;;;;23.81;60.82;96819.51;586141;242;65205;-67
2022/04/05 00:04:48;;;;;;;;;;;;;;;23.82;61.38;96825.70;586122;242;66719;-68
2022/04/05 00:07:15;;;;;;;;;;;;;;;23.81;61.21;96821.40;586102;242;66458;-68
2022/04/05 00:09:43;;;;;;;;;;;;;;;23.80;60.83;96814.45;586183;242;65351;-67
2022/04/05 00:12:11;;;;;;;;;;;;;;;23.80;60.93;96809.08;586132;242;68832;-68
2022/04/05 00:14:38;;;;;;;;;;;;;;;23.79;61.44;96810.16;586127;242;68672;-67
2022/04/05 00:17:06;;;;;;;;;;;;;;;23.78;61.30;96804.00;586110;242;65293;-67
2022/04/05 00:19:33;;;;;;;;;;;;;;;23.79;62.56;96808.30;586101;242;68749;-68
2022/04/05 00:22:01;;;;;;;;;;;;;;;23.79;61.91;96804.79;578469;242;68570;-67
2022/04/05 00:24:28;;;;;;;;;;;;;;;23.78;61.54;96800.52;575620;246;63299;-68
2022/04/05 00:26:57;;;;;;;;;;;;;;;23.78;61.68;96800.52;575532;246;66736;-68
2022/04/05 00:29:24;;;;;;;;;;;;;;;23.75;60.59;96811.84;575540;246;68932;-68
2022/04/05 00:31:52;;;;;;;;;;;;;;;23.75;61.06;96809.95;575559;246;65392;-68
2022/04/05 00:34:24;;;;;;;;;;;;;;;23.75;62.22;96801.91;575508;246;66698;-68
2022/04/05 00:36:49;;;;;;;;;;;;;;;23.75;61.94;96801.11;575529;245;68876;-68
2022/04/05 00:39:17;;;;;;;;;;;;;;;23.74;61.49;96805.69;575519;246;65436;-68
2022/04/05 00:41:44;;;;;;;;;;;;;;;23.73;61.32;96800.60;575570;246;68668;-68
2022/04/05 00:44:12;;;;;;;;;;;;;;;23.72;61.27;96796.34;575551;246;68588;-68
2022/04/05 00:46:39;;;;;;;;;;;;;;;23.73;61.83;96800.60;575559;246;65173;-68
2022/04/05 00:49:08;;;;;;;;;;;;;;;23.73;61.86;96792.55;575590;246;68380;-68
2022/04/05 00:51:35;;;;;;;;;;;;;;;23.72;61.79;96799.81;575548;246;66687;-68
2022/04/05 00:54:05;;;;;;;;;;;;;;;23.70;61.93;96801.95;575519;246;63054;-68
2022/04/05 00:56:37;;;;;;;;;;;;;;;23.69;62.00;96798.48;575566;246;66716;-68
2022/04/05 00:59:07;;;;;;;;;;;;;;;23.68;61.59;96799.58;575519;246;66554;-71
2022/04/05 01:01:34;;;;;;;;;;;;;;;23.69;61.21;96797.69;575589;246;65595;-71
2022/04/05 01:04:03;;;;;;;;;;;;;;;23.66;61.08;96791.02;575577;246;69594;-71
2022/04/05 01:06:32;;;;;;;;;;;;;;;23.68;62.89;96791.53;575549;246;68621;-71
2022/04/05 01:09:00;;;;;;;;;;;;;;;23.65;61.01;96794.80;575547;246;63276;-71
2022/04/05 01:11:28;;;;;;;;;;;;;;;23.66;62.92;96793.70;575549;246;66549;-71
2022/04/05 01:13:55;;;;;;;;;;;;;;;23.65;62.71;96794.80;575538;246;66515;-71
2022/04/05 01:16:23;;;;;;;;;;;;;;;23.64;60.62;96793.20;575604;244;63034;-71
2022/04/05 01:18:51;;;;;;;;;;;;;;;23.65;62.44;96794.80;575500;246;66556;-71
2022/04/05 01:21:18;;;;;;;;;;;;;;;23.62;61.45;96784.64;580088;242;68620;-71
2022/04/05 01:24:07;;;;;;;;;;;;;;;23.62;62.19;96792.69;586163;242;65472;-71
2022/04/05 01:26:44;;;;;;;;;;;;;;;23.62;62.03;96781.16;586142;242;67471;-71
2022/04/05 01:29:13;;;;;;;;;;;;;;;23.60;61.56;96781.47;586149;242;68754;-71
2022/04/05 01:31:44;;;;;;;;;;;;;;;23.61;62.78;96788.42;586177;242;65230;-71
2022/04/05 01:34:15;;;;;;;;;;;;;;;23.59;62.81;96777.18;586115;242;68681;-72
2022/04/05 01:36:45;;;;;;;;;;;;;;;23.57;62.28;96776.70;586148;242;66328;-72
2022/04/05 01:39:13;;;;;;;;;;;;;;;23.56;62.66;96775.09;586128;242;65429;-72
2022/04/05 01:41:40;;;;;;;;;;;;;;;23.57;61.72;96762.47;586153;242;68609;-71
2022/04/05 01:44:09;;;;;;;;;;;;;;;23.57;62.50;96765.97;586175;242;68905;-72
2022/04/05 01:46:36;;;;;;;;;;;;;;;23.56;61.38;96764.36;586150;242;63013;-72
2022/04/05 01:49:07;;;;;;;;;;;;;;;23.55;62.49;96764.67;586141;242;66477;-72
2022/04/05 01:51:37;;;;;;;;;;;;;;;23.54;62.17;96763.84;586111;242;68462;-72
2022/04/05 01:54:08;;;;;;;;;;;;;;;23.54;62.94;96758.48;586149;242;65516;-72
2022/04/05 01:56:36;;;;;;;;;;;;;;;23.55;62.78;96761.98;586147;242;68932;-72
2022/04/05 01:59:04;;;;;;;;;;;;;;;23.52;62.33;96747.27;586006;242;68480;-71
2022/04/05 02:01:32;;;;;;;;;;;;;;;23.52;62.44;96747.27;586158;242;63097;-72
2022/04/05 02:03:59;;;;;;;;;;;;;;;23.52;62.86;96755.32;586128;242;66124;-72
2022/04/05 02:06:27;;;;;;;;;;;;;;;23.52;61.94;96747.27;586116;242;66545;-72
2022/04/05 02:08:55;;;;;;;;;;;;;;;23.51;63.47;96742.98;586122;242;63059;-72
2022/04/05 02:11:23;;;;;;;;;;;;;;;23.51;62.64;96750.23;586203;242;69419;-71
2022/04/05 02:13:53;;;;;;;;;;;;;;;23.49;61.64;96745.18;586137;242;68731;-71
2022/04/05 02:16:20;;;;;;;;;;;;;;;23.49;62.20;96748.66;586113;242;65458;-71
2022/04/05 02:18:48;;;;;;;;;;;;;;;23.49;62.56;96743.29;586138;242;66047;-72
2022/04/05 02:21:17;;;;;;;;;;;;;;;23.49;63.26;96739.81;581638;242;69008;-72
2022/04/05 02:23:46;;;;;;;;;;;;;;;23.48;62.09;96748.94;575683;244;43940;-72
2022/04/05 02:26:15;;;;;;;;;;;;;;;23.48;63.34;96748.94;575580;245;45577;-72
2022/04/05 02:28:44;;;;;;;;;;;;;;;23.47;63.29;96741.98;575574;244;45703;-71
2022/04/05 02:31:14;;;;;;;;;;;;;;;23.46;62.66;96746.56;575602;245;44055;-72
2022/04/05 02:33:41;;;;;;;;;;;;;;;23.47;62.40;96739.30;575533;246;68598;-71
2022/04/05 02:36:11;;;;;;;;;;;;;;;23.45;62.83;96733.43;575508;245;45818;-71
2022/04/05 02:38:38;;;;;;;;;;;;;;;23.44;62.39;96742.58;575586;245;65177;-71
2022/04/05 02:41:07;;;;;;;;;;;;;;;23.43;61.85;96735.61;575566;246;69068;-72
2022/04/05 02:43:35;;;;;;;;;;;;;;;23.44;62.62;96737.22;575528;246;65863;-72
2022/04/05 02:46:03;;;;;;;;;;;;;;;23.41;62.24;96727.87;575559;246;65492;-72
2022/04/05 02:48:31;;;;;;;;;;;;;;;23.42;62.89;96720.61;575551;246;68078;-72
2022/04/05 02:50:59;;;;;;;;;;;;;;;23.41;62.04;96727.08;575573;246;68791;-72
2022/04/05 02:53:27;;;;;;;;;;;;;;;23.40;62.54;96717.42;575534;246;62598;-72
2022/04/05 02:55:55;;;;;;;;;;;;;;;23.40;62.28;96720.89;575519;246;69040;-72
2022/04/05 02:58:24;;;;;;;;;;;;;;;23.39;62.01;96721.99;575517;246;66414;-72
2022/04/05 03:00:52;;;;;;;;;;;;;;;23.39;62.98;96715.84;575528;246;65860;-72
2022/04/05 03:03:20;;;;;;;;;;;;;;;23.38;61.36;96720.41;575572;246;66702;-71
2022/04/05 03:05:50;;;;;;;;;;;;;;;23.38;62.54;96719.59;575551;245;46518;-72
2022/04/05 03:08:17;;;;;;;;;;;;;;;23.38;61.28;96719.59;575516;246;65393;-72
2022/04/05 03:10:45;;;;;;;;;;;;;;;23.38;63.13;96711.55;575511;246;66506;-72
2022/04/05 03:13:13;;;;;;;;;;;;;;;23.36;63.11;96703.81;575538;246;69055;-71
2022/04/05 03:15:42;;;;;;;;;;;;;;;23.37;62.92;96704.61;575560;246;62751;-71
2022/04/05 03:18:10;;;;;;;;;;;;;;;23.35;62.26;96704.09;575553;246;69395;-72
2022/04/05 03:20:38;;;;;;;;;;;;;;;23.35;63.22;96707.56;577115;242;68962;-72
2022/04/05 03:23:07;;;;;;;;;;;;;;;23.34;61.56;96700.63;586090;242;65557;-72
2022/04/05 03:25:34;;;;;;;;;;;;;;;23.34;62.87;96699.83;586135;242;66752;-72
2022/04/05 03:28:02;;;;;;;;;;;;;;;23.34;62.51;96705.98;586136;242;68665;-71
2022/04/05 03:30:31;;;;;;;;;;;;;;;23.32;63.20;96702.80;586168;242;63365;-72
2022/04/05 03:33:00;;;;;;;;;;;;;;;23.32;62.66;96702.00;586103;242;66693;-71
2022/04/05 03:35:29;;;;;;;;;;;;;;;23.32;62.48;96702.00;586061;242;69083;-72
2022/04/05 03:37:57;;;;;;;;;;;;;;;23.31;62.61;96703.11;586111;242;63147;-71
2022/04/05 03:40:26;;;;;;;;;;;;;;;23.31;62.82;96695.06;586079;242;69234;-72
2022/04/05 03:42:54;;;;;;;;;;;;;;;23.30;62.56;96704.17;586177;242;69039;-72
2022/04/05 03:45:23;;;;;;;;;;;;;;;23.30;63.33;96704.17;579791;242;65792;-72
2022/04/05 03:47:51;;;;;;;;;;;;;;;23.29;62.44;96707.95;586091;242;68697;-71
2022/04/05 03:50:19;;;;;;;;;;;;;;;23.28;62.26;96709.05;586104;242;66457;-72
2022/04/05 03:52:48;;;;;;;;;;;;;;;23.29;62.70;96705.27;586096;242;65989;-71
2022/04/05 03:55:17;;;;;;;;;;;;;;;23.27;63.23;96700.19;585930;242;48483;-72
2022/04/05 03:57:46;;;;;;;;;;;;;;;23.29;63.22;96702.59;586128;242;47265;-72
2022/04/05 04:00:15;;;;;;;;;;;;;;;23.27;62.50;96700.19;586059;242;65932;-72
2022/04/05 04:02:44;;;;;;;;;;;;;;;23.25;62.90;96695.14;586071;242;44928;-71
2022/04/05 04:05:17;;;;;;;;;;;;;;;23.24;62.01;96696.23;586140;242;68478;-69
2022/04/05 04:07:41;;;;;;;;;;;;;;;23.25;62.60;96697.82;586040;242;65205;-68
2022/04/05 04:10:09;;;;;;;;;;;;;;;23.25;63.00;96694.34;586115;242;69535;-69
2022/04/05 04:12:37;;;;;;;;;;;;;;;23.24;63.75;96698.92;586144;242;69023;-68
2022/04/05 04:15:05;;;;;;;;;;;;;;;23.24;63.12;96700.78;586115;242;62799;-68
2022/04/05 04:17:33;;;;;;;;;;;;;;;23.23;62.71;96701.88;586173;242;69517;-68
2022/04/05 04:20:01;;;;;;;;;;;;;;;23.22;63.71;96697.62;586191;242;67366;-68
2022/04/05 04:22:29;;;;;;;;;;;;;;;23.22;62.77;96697.62;586138;242;65437;-71
2022/04/05 04:24:58;;;;;;;;;;;;;;;23.21;63.45;96701.37;586171;242;67488;-71
2022/04/05 04:27:26;;;;;;;;;;;;;;;23.21;62.87;96690.65;586148;242;69108;-71
2022/04/05 04:29:53;;;;;;;;;;;;;;;23.20;63.04;96691.75;586145;242;62771;-71
2022/04/05 04:32:21;;;;;;;;;;;;;;;23.18;63.30;96702.75;586154;242;66356;-71
2022/04/05 04:34:48;;;;;;;;;;;;;;;23.20;64.09;96705.15;586172;242;69052;-71
2022/04/05 04:37:16;;;;;;;;;;;;;;;23.19;62.58;96708.91;586131;242;65667;-71
2022/04/05 04:39:44;;;;;;;;;;;;;;;23.18;62.45;96708.11;586148;242;68937;-71
2022/04/05 04:42:12;;;;;;;;;;;;;;;23.17;63.24;96706.53;586113;242;68663;-71
2022/04/05 04:44:40;;;;;;;;;;;;;;;23.18;63.04;96707.32;586060;242;65694;-71
2022/04/05 04:47:08;;;;;;;;;;;;;;;23.17;62.99;96706.53;586206;242;68825;-71
2022/04/05 04:49:36;;;;;;;;;;;;;;;23.15;63.19;96708.70;574519;242;69188;-71
2022/04/05 04:52:03;;;;;;;;;;;;;;;23.16;62.67;96720.21;586129;242;65297;-71
2022/04/05 04:54:31;;;;;;;;;;;;;;;23.16;63.47;96715.67;586158;242;68807;-71
2022/04/05 04:56:58;;;;;;;;;;;;;;;23.15;63.69;96710.59;586119;242;68771;-71
2022/04/05 04:59:26;;;;;;;;;;;;;;;23.13;63.35;96710.87;586216;242;64180;-71
2022/04/05 05:01:53;;;;;;;;;;;;;;;23.13;63.52;96710.08;586054;242;67540;-71
2022/04/05 05:04:21;;;;;;;;;;;;;;;23.13;62.79;96707.39;586085;242;68555;-71
2022/04/05 05:06:48;;;;;;;;;;;;;;;23.12;63.37;96709.28;586017;242;65518;-71
2022/04/05 05:09:16;;;;;;;;;;;;;;;23.12;64.08;96703.92;586026;242;66605;-71
2022/04/05 05:11:44;;;;;;;;;;;;;;;23.11;63.21;96704.20;586125;242;66620;-72
2022/04/05 05:14:12;;;;;;;;;;;;;;;23.11;64.14;96707.70;586143;242;65705;-71
2022/04/05 05:16:39;;;;;;;;;;;;;;;23.10;62.80;96706.09;586128;242;69451;-71
2022/04/05 05:19:07;;;;;;;;;;;;;;;23.09;62.77;96709.88;586138;242;68476;-73
2022/04/05 05:21:35;;;;;;;;;;;;;;;23.09;63.37;96707.19;585937;242;63318;-73
2022/04/05 05:24:03;;;;;;;;;;;;;;;23.09;63.44;96717.13;586095;242;68689;-72
2022/04/05 05:26:30;;;;;;;;;;;;;;;23.08;62.97;96716.33;585741;242;69039;-73
2022/04/05 05:28:58;;;;;;;;;;;;;;;23.08;63.04;96713.66;586070;242;66399;-73
2022/04/05 05:31:25;;;;;;;;;;;;;;;23.08;62.65;96716.33;586131;242;68852;-73
2022/04/05 05:33:53;;;;;;;;;;;;;;;23.06;63.07;96718.50;586132;242;68507;-73
2022/04/05 05:36:20;;;;;;;;;;;;;;;23.07;63.50;96722.77;586106;242;65303;-73
2022/04/05 05:38:47;;;;;;;;;;;;;;;23.07;63.81;96720.08;586192;242;68679;-73
2022/04/05 05:41:15;;;;;;;;;;;;;;;23.06;63.59;96728.43;586158;242;68598;-73
2022/04/05 05:43:45;;;;;;;;;;;;;;;23.06;63.84;96725.75;586213;242;65137;-73
2022/04/05 05:46:15;;;;;;;;;;;;;;;23.06;63.70;96725.75;586127;242;68457;-72
2022/04/05 05:48:42;;;;;;;;;;;;;;;23.04;63.13;96723.34;586122;242;68881;-71
2022/04/05 05:51:10;;;;;;;;;;;;;;;23.04;63.51;96723.34;586132;242;65276;-72
2022/04/05 05:53:37;;;;;;;;;;;;;;;23.03;64.18;96727.12;586135;242;68924;-71
2022/04/05 05:56:05;;;;;;;;;;;;;;;23.03;64.47;96725.23;586129;242;68562;-71
2022/04/05 05:58:32;;;;;;;;;;;;;;;23.02;64.05;96730.87;586136;242;65392;-76
2022/04/05 06:01:00;;;;;;;;;;;;;;;23.02;63.71;96734.34;586118;242;68857;-72
2022/04/05 06:03:28;;;;;;;;;;;;;;;23.01;63.53;96723.94;585248;242;68583;-67
2022/04/05 06:05:56;;;;;;;;;;;;;;;23.01;64.22;96732.77;586150;242;63180;-72
2022/04/05 06:08:23;;;;;;;;;;;;;;;22.98;61.63;96730.67;586136;242;68796;-72
2022/04/05 06:10:51;;;;;;;;;;;;;;;23.00;63.80;96727.71;585952;242;66498;-78
2022/04/05 06:13:18;;;;;;;;;;;;;;;23.00;63.83;96730.39;580314;239;65607;-80
2022/04/05 06:15:46;;;;;;;;;;;;;;;22.99;63.49;96731.46;579053;245;68890;-75
2022/04/05 06:18:14;;;;;;;;;;;;;;;23.00;64.01;96728.50;579006;245;68605;-62
2022/04/05 06:20:42;;;;;;;;;;;;;;;23.01;64.17;96723.94;577705;245;65343;-69
2022/04/05 06:23:09;;;;;;;;;;;;;;;23.01;61.36;96721.25;571501;248;68716;-69
2022/04/05 06:25:38;;;;;;;;;;;;;;;23.04;65.30;96726.82;571463;248;68743;-68
2022/04/05 06:28:07;;;;;;;;;;;;;;;23.04;65.14;96715.31;571542;248;65091;-68
2022/04/05 06:30:36;;;;;;;;;;;;;;;23.08;63.95;96708.30;571504;248;68851;-67
2022/04/05 06:33:08;;;;;;;;;;;;;;;23.10;63.66;96710.66;571525;248;66162;-70
2022/04/05 06:35:37;;;;;;;;;;;;;;;23.12;64.34;96708.50;571540;248;65378;-77
2022/04/05 06:38:04;;;;;;;;;;;;;;;23.11;63.72;96707.70;571279;248;69354;-69
2022/04/05 06:40:32;;;;;;;;;;;;;;;23.12;58.04;96703.92;571504;248;68721;-66
2022/04/05 06:43:00;;;;;;;;;;;;;;;23.18;64.66;96702.75;571558;248;65329;-68
2022/04/05 06:45:27;;;;;;;;;;;;;;;23.20;62.91;96697.90;571459;248;68635;-68
2022/04/05 06:47:55;;;;;;;;;;;;;;;23.24;63.64;96698.10;571552;248;66550;-68
2022/04/05 06:50:27;;;;;;;;;;;;;;;23.28;64.11;96695.66;571551;248;65333;-68
2022/04/05 06:52:52;;;;;;;;;;;;;;;23.30;63.40;96699.63;571382;248;68480;-65
2022/04/05 06:55:20;;;;;;;;;;;;;;;23.34;63.71;96694.47;571552;248;66732;-67
2022/04/05 06:57:47;;;;;;;;;;;;;;;23.37;63.36;96697.35;571513;248;63358;-66
2022/04/05 07:00:17;;;;;;;;;;;;;;;23.40;62.31;96695.97;571494;248;66489;-67
2022/04/05 07:02:44;;;;;;;;;;;;;;;23.44;62.72;96691.63;571455;248;66547;-66
2022/04/05 07:05:12;;;;;;;;;;;;;;;23.46;62.42;96692.10;572556;245;63335;-66
2022/04/05 07:07:41;;;;;;;;;;;;;;;23.48;62.87;96688.04;578240;245;69150;-66
2022/04/05 07:10:10;;;;;;;;;;;;;;;23.52;62.78;96685.58;578317;245;68671;-66
2022/04/05 07:12:37;;;;;;;;;;;;;;;23.56;62.54;96683.09;578337;245;63929;-66
2022/04/05 07:15:06;;;;;;;;;;;;;;;23.59;62.32;96685.19;578291;245;66778;-66
2022/04/05 07:17:33;;;;;;;;;;;;;;;23.61;62.12;96680.33;578324;245;69350;-68
2022/04/05 07:20:01;;;;;;;;;;;;;;;23.65;61.70;96684.81;578330;245;65306;-66
2022/04/05 07:22:29;;;;;;;;;;;;;;;23.69;62.27;96685.02;575683;242;66614;-66
2022/04/05 07:24:56;;;;;;;;;;;;;;;23.70;62.77;96681.23;575440;246;68625;-72
2022/04/05 07:27:23;;;;;;;;;;;;;;;23.72;62.42;96679.08;575455;246;65198;-82
2022/04/05 07:29:51;;;;;;;;;;;;;;;23.75;61.82;96678.48;575422;246;68735;-78
2022/04/05 07:32:18;;;;;;;;;;;;;;;23.78;62.07;96677.09;575527;246;68534;-67
2022/04/05 07:34:46;;;;;;;;;;;;;;;23.79;61.66;96678.67;575500;246;65456;-66
2022/04/05 07:37:16;;;;;;;;;;;;;;;23.81;61.55;96676.50;575399;244;68786;-70
2022/04/05 07:39:43;;;;;;;;;;;;;;;23.83;61.69;96674.32;575482;246;68737;-70
2022/04/05 07:42:10;;;;;;;;;;;;;;;23.85;60.25;96672.14;575421;246;63013;-69
2022/04/05 07:44:39;;;;;;;;;;;;;;;23.86;61.22;96668.36;575502;246;66458;-68
2022/04/05 07:47:07;;;;;;;;;;;;;;;23.88;61.64;96666.97;575555;246;68255;-71
2022/04/05 07:49:34;;;;;;;;;;;;;;;23.90;62.34;96664.00;575456;246;66385;-69
2022/04/05 07:52:02;;;;;;;;;;;;;;;23.91;60.06;96666.36;575493;246;68367;-64
2022/04/05 07:54:30;;;;;;;;;;;;;;;23.88;62.27;96664.28;575481;246;66756;-75
2022/04/05 07:56:58;;;;;;;;;;;;;;;23.86;61.91;96657.63;575452;246;65398;-69
2022/04/05 07:59:25;;;;;;;;;;;;;;;23.85;61.71;96658.73;575469;246;68394;-67
2022/04/05 08:01:53;;;;;;;;;;;;;;;23.85;60.85;96653.36;575553;246;68458;-72
2022/04/05 08:04:20;;;;;;;;;;;;;;;23.85;60.39;96650.67;575380;246;65535;-70
2022/04/05 08:06:50;;;;;;;;;;;;;;;23.85;59.41;96645.31;575503;246;68465;-70
2022/04/05 08:09:17;;;;;;;;;;;;;;;23.86;60.66;96649.57;575481;246;66271;-65
2022/04/05 08:11:45;;;;;;;;;;;;;;;23.86;60.72;96646.89;575475;246;63226;-63
2022/04/05 08:14:12;;;;;;;;;;;;;;;23.86;60.63;96636.94;575572;246;66038;-69
2022/04/05 08:16:40;;;;;;;;;;;;;;;23.88;58.46;96637.45;575453;246;69317;-69
2022/04/05 08:19:09;;;;;;;;;;;;;;;23.90;59.92;96634.48;575457;246;65585;-69
2022/04/05 08:21:37;;;;;;;;;;;;;;;23.91;59.84;96628.00;581324;242;66771;-69
2022/04/05 08:24:04;;;;;;;;;;;;;;;;;;586101;242;68689;-68
2022/04/05 08:26:31;;;;;;;;;;;;;;;23.92;59.25;96622.33;586098;242;65334;-65
2022/04/05 08:28:59;;;;;;;;;;;;;;;23.92;59.47;96611.59;586039;242;66446;-74
2022/04/05 08:31:26;;;;;;;;;;;;;;;23.95;58.67;96618.25;585990;242;66489;-68
2022/04/05 08:33:54;;;;;;;;;;;;;;;23.96;59.55;96606.44;586010;242;63331;-67
2022/04/05 08:36:21;;;;;;;;;;;;;;;23.96;59.36;96603.75;586073;242;68502;-66
2022/04/05 08:38:48;;;;;;;;;;;;;;;23.98;58.68;96601.57;586073;242;68663;-67
2022/04/05 08:41:20;;;;;;;;;;;;;;;23.99;59.17;96603.15;586006;242;65397;-63
2022/04/05 08:43:49;;;;;;;;;;;;;;;24.00;59.68;96593.98;586072;242;68427;-62
2022/04/05 08:46:18;;;;;;;;;;;;;;;24.01;59.37;96589.41;586056;242;68564;-63
2022/04/05 08:48:47;;;;;;;;;;;;;;;24.01;59.15;96592.91;586097;242;63356;-63
2022/04/05 08:51:15;;;;;;;;;;;;;;;24.02;59.13;96589.13;586109;242;68559;-63
2022/04/05 08:53:43;;;;;;;;;;;;;;;24.04;57.99;96594.20;586146;242;66115;-63
2022/04/05 08:56:10;;;;;;;;;;;;;;;24.03;58.78;96588.02;586106;242;63046;-63
2022/04/05 08:58:38;;;;;;;;;;;;;;;24.04;60.01;96583.47;586106;242;68311;-65
2022/04/05 09:01:06;;;;;;;;;;;;;;;24.05;59.13;96574.31;586095;242;66189;-64
2022/04/05 09:03:35;;;;;;;;;;;;;;;24.05;58.35;96576.99;585995;242;65379;-66
2022/04/05 09:06:04;;;;;;;;;;;;;;;24.06;58.88;96574.02;586101;242;68596;-65
2022/04/05 09:08:34;;;;;;;;;;;;;;;24.06;59.67;96574.02;584974;242;68602;-63
2022/04/05 09:11:06;;;;;;;;;;;;;;;24.06;59.45;96571.34;586073;242;65413;-62
2022/04/05 09:13:33;;;;;;;;;;;;;;;24.06;59.54;96568.66;586108;242;68663;-63
2022/04/05 09:16:04;;;;;;;;;;;;;;;24.07;58.44;96567.55;586059;242;68536;-63
2022/04/05 09:18:40;;;;;;;;;;;;;;;24.08;58.41;96568.33;586018;242;65225;-64
2022/04/05 09:21:08;;;;;;;;;;;;;;;24.09;59.39;96565.36;586167;242;68552;-65
2022/04/05 09:23:47;;;;;;;;;;;;;;;24.09;59.55;96559.17;585984;242;68519;-63
2022/04/05 09:26:15;;;;;;;;;;;;;;;24.09;59.38;96557.31;585788;242;63142;-63
2022/04/05 09:28:43;;;;;;;;;;;;;;;24.09;59.14;96557.31;585939;242;68489;-63
2022/04/05 09:31:12;;;;;;;;;;;;;;;24.09;59.23;96548.44;585981;242;68610;-63
2022/04/05 09:33:41;;;;;;;;;;;;;;;24.09;59.79;96549.25;586106;242;63181;-63
2022/04/05 09:36:10;;;;;;;;;;;;;;;24.09;58.71;96546.56;586098;242;66450;-63
2022/04/05 09:38:39;;;;;;;;;;;;;;;24.10;59.68;96539.30;586123;242;67082;-64
2022/04/05 09:41:21;;;;;;;;;;;;;;;24.11;60.21;96536.30;586088;242;65332;-64
2022/04/05 09:43:56;;;;;;;;;;;;;;;24.09;59.05;96535.83;586092;242;68568;-63
2022/04/05 09:46:24;;;;;;;;;;;;;;;24.10;59.82;96528.56;585645;242;66442;-63
2022/04/05 09:49:08;;;;;;;;;;;;;;;24.10;59.24;96523.98;585956;242;65222;-62
2022/04/05 09:51:37;;;;;;;;;;;;;;;24.10;59.17;96523.20;586100;242;68664;-65
2022/04/05 09:54:05;;;;;;;;;;;;;;;24.11;59.17;96519.41;586141;242;68598;-69
2022/04/05 09:56:34;;;;;;;;;;;;;;;24.09;59.42;96529.64;586103;242;65323;-68
2022/04/05 09:59:06;;;;;;;;;;;;;;;24.08;60.24;96520.80;585946;242;68603;-68
2022/04/05 10:01:36;;;;;;;;;;;;;;;24.07;60.59;96519.23;586087;242;66391;-67
2022/04/05 10:04:11;;;;;;;;;;;;;;;24.06;60.00;96514.15;586070;242;65287;-67
2022/04/05 10:06:43;;;;;;;;;;;;;;;24.05;59.41;96512.57;586081;242;68644;-68
2022/04/05 10:09:09;;;;;;;;;;;;;;;24.05;59.96;96502.63;586039;242;68462;-67
2022/04/05 10:11:38;;;;;;;;;;;;;;;24.06;59.58;96495.36;585976;242;65556;-67
2022/04/05 10:14:07;;;;;;;;;;;;;;;24.05;58.67;96499.94;586099;242;66385;-67
2022/04/05 10:16:35;;;;;;;;;;;;;;;24.05;59.36;96489.20;586194;242;68003;-68
2022/04/05 10:19:07;;;;;;;;;;;;;;;24.06;57.63;96485.44;586042;242;63343;-66
2022/04/05 10:21:36;;;;;;;;;;;;;;;24.08;57.67;96491.27;582428;242;68702;-65
2022/04/05 10:24:07;;;;;;;;;;;;;;;24.09;57.27;96478.64;575432;246;66752;-73
2022/04/05 10:26:36;;;;;;;;;;;;;;;24.08;58.38;96480.54;575452;246;66307;-72
2022/04/05 10:29:08;;;;;;;;;;;;;;;24.07;58.91;96473.59;575478;246;68574;-73
2022/04/05 10:31:37;;;;;;;;;;;;;;;24.07;58.27;96476.28;575473;246;69269;-70
2022/04/05 10:34:23;;;;;;;;;;;;;;;24.06;58.20;96473.89;575445;246;65372;-69
2022/04/05 10:37:06;;;;;;;;;;;;;;;24.08;55.97;96477.85;575555;246;68382;-70
2022/04/05 10:39:34;;;;;;;;;;;;;;;24.10;55.77;96470.30;575489;246;66281;-73
2022/04/05 10:42:10;;;;;;;;;;;;;;;24.13;56.90;96460.84;575513;246;65329;-71
2022/04/05 10:44:39;;;;;;;;;;;;;;;24.14;56.27;96459.73;575527;246;65664;-70
2022/04/05 10:47:07;;;;;;;;;;;;;;;24.14;57.23;96460.55;575539;246;68210;-69
2022/04/05 10:49:39;;;;;;;;;;;;;;;24.15;57.06;96453.29;575456;246;65301;-70
2022/04/05 10:52:11;;;;;;;;;;;;;;;24.17;57.12;96447.59;575374;245;66294;-70
2022/04/05 10:54:48;;;;;;;;;;;;;;;24.17;57.25;96437.64;575489;246;68164;-70
2022/04/05 10:57:18;;;;;;;;;;;;;;;24.18;57.29;96431.20;575403;246;63100;-72
2022/04/05 10:59:46;;;;;;;;;;;;;;;24.18;57.66;96422.36;575471;244;66271;-69
2022/04/05 11:02:32;;;;;;;;;;;;;;;24.20;57.42;96422.82;575520;246;68033;-70
2022/04/05 11:05:04;;;;;;;;;;;;;;;24.20;57.83;96425.50;575500;246;65448;-71
2022/04/05 11:07:33;;;;;;;;;;;;;;;24.20;57.59;96425.50;575487;246;66427;-74
2022/04/05 11:10:00;;;;;;;;;;;;;;;24.20;57.94;96417.45;574947;246;66322;-73
2022/04/05 11:12:30;;;;;;;;;;;;;;;24.21;57.48;96416.38;575489;246;63125;-73
2022/04/05 11:14:59;;;;;;;;;;;;;;;24.21;58.08;96416.38;575497;246;68560;-73
2022/04/05 11:17:27;;;;;;;;;;;;;;;24.22;57.42;96415.27;575445;246;68578;-68
2022/04/05 11:19:57;;;;;;;;;;;;;;;24.22;57.33;96405.30;575470;246;63218;-67
2022/04/05 11:22:26;;;;;;;;;;;;;;;24.22;57.79;96404.52;582579;242;69711;-67
2022/04/05 11:24:55;;;;;;;;;;;;;;;24.24;58.20;96394.28;585959;242;68533;-67
2022/04/05 11:27:28;;;;;;;;;;;;;;;24.21;57.32;96395.68;586091;242;63251;-70
2022/04/05 11:30:00;;;;;;;;;;;;;;;24.23;58.06;96390.80;586098;242;66592;-67
2022/04/05 11:32:27;;;;;;;;;;;;;;;24.24;58.14;96388.91;584038;242;68182;-64
2022/04/05 11:34:55;;;;;;;;;;;;;;;24.23;57.98;96382.75;586055;242;65295;-64
2022/04/05 11:37:24;;;;;;;;;;;;;;;24.22;58.16;96377.67;586042;242;68776;-63
2022/04/05 11:39:52;;;;;;;;;;;;;;;24.24;58.07;96378.16;585611;242;66465;-63
2022/04/05 11:42:19;;;;;;;;;;;;;;;24.24;58.06;96367.42;586092;242;63135;-68
2022/04/05 11:44:51;;;;;;;;;;;;;;;24.24;58.14;96378.16;586072;242;66233;-68
2022/04/05 11:47:20;;;;;;;;;;;;;;;24.22;58.53;96364.25;586032;242;68672;-69
2022/04/05 11:49:47;;;;;;;;;;;;;;;24.22;57.55;96361.56;586072;242;63294;-71
2022/04/05 11:52:15;;;;;;;;;;;;;;;24.21;58.26;96362.67;586045;242;66263;-69
2022/04/05 11:57:28;;;;;;;;;;;;;;;24.19;57.05;96354.91;586125;242;66419;-70
2022/04/05 12:00:06;;;;;;;;;;;;;;;24.19;57.40;96354.91;586038;242;69328;-71
2022/04/05 12:02:33;;;;;;;;;;;;;;;24.19;58.00;96356.81;585846;242;68571;-71
2022/04/05 12:05:01;;;;;;;;;;;;;;;24.19;57.05;96346.08;586004;242;65392;-71
2022/04/05 12:07:35;;;;;;;;;;;;;;;24.19;57.05;96343.39;586003;242;68959;-70
2022/04/05 12:10:03;;;;;;;;;;;;;;;24.19;56.76;96343.39;586039;242;66633;-71
2022/04/05 12:12:31;;;;;;;;;;;;;;;24.19;57.06;96343.39;586072;242;65172;-71
2022/04/05 12:14:58;;;;;;;;;;;;;;;24.19;56.54;96329.97;586013;242;66508;-71
2022/04/05 12:17:26;;;;;;;;;;;;;;;24.20;56.66;96339.59;586075;242;68561;-68
2022/04/05 12:19:54;;;;;;;;;;;;;;;24.20;56.31;96323.48;586042;242;65381;-66
2022/04/05 12:22:21;;;;;;;;;;;;;;;24.21;56.91;96325.09;586077;242;68866;-68
2022/04/05 12:24:54;;;;;;;;;;;;;;;24.21;56.65;96325.09;586107;242;66678;-68
2022/04/05 12:27:23;;;;;;;;;;;;;;;24.24;57.09;96329.84;586109;242;65317;-69
2022/04/05 12:29:52;;;;;;;;;;;;;;;24.23;57.45;96312.94;586058;242;68911;-68
2022/04/05 12:32:20;;;;;;;;;;;;;;;24.25;57.24;96315.30;585969;242;68722;-68
2022/04/05 12:34:48;;;;;;;;;;;;;;;24.26;57.14;96311.53;586041;242;65592;-68
2022/04/05 12:37:17;;;;;;;;;;;;;;;24.27;57.27;96307.73;586084;242;66784;-68
2022/04/05 12:39:50;;;;;;;;;;;;;;;24.28;57.51;96303.94;586100;242;68847;-69
2022/04/05 12:42:19;;;;;;;;;;;;;;;24.27;57.26;96300.47;586037;242;65565;-69
2022/04/05 12:44:48;;;;;;;;;;;;;;;24.28;57.36;96293.20;586080;242;66651;-69
2022/04/05 12:47:17;;;;;;;;;;;;;;;24.29;58.02;96292.12;586124;242;66106;-69
2022/04/05 12:49:46;;;;;;;;;;;;;;;24.29;57.64;96287.53;585947;242;65324;-69
2022/04/05 12:52:21;;;;;;;;;;;;;;;24.31;58.13;96285.34;586161;242;68734;-69
2022/04/05 12:54:53;;;;;;;;;;;;;;;24.32;57.88;96286.12;586119;242;68953;-69
2022/04/05 12:57:31;;;;;;;;;;;;;;;24.32;58.04;96283.44;586071;242;65486;-69
2022/04/05 13:00:13;;;;;;;;;;;;;;;24.33;58.42;96279.64;586069;242;66395;-68